sensor_id;sensor_type;location;lat;lon;timestamp;temperature;humidity
74296;SHT30;62690;48.420;-4.512;2022-09-01T15:27:43;24.95;62.95
74296;SHT30;62690;48.420;-4.512;2022-09-01T15:30:11;25.08;61.89
74296;SHT30;62690;48.420;-4.512;2022-09-01T15:32:48;25.19;61.48
74296;SHT30;62690;48.420;-4.512;2022-09-01T15:35:14;25.28;61.16
74296;SHT30;62690;48.420;-4.512;2022-09-01T15:37:40;25.32;61.36
74296;SHT30;62690;48.420;-4.512;2022-09-01T15:40:06;25.37;61.42
74296;SHT30;62690;48.420;-4.512;2022-09-01T15:42:33;25.41;61.42
74296;SHT30;62690;48.420;-4.512;2022-09-01T15:45:00;25.41;61.65
74296;SHT30;62690;48.420;-4.512;2022-09-01T15:47:26;25.38;61.68
74296;SHT30;62690;48.420;-4.512;2022-09-01T15:49:51;25.39;61.58
74296;SHT30;62690;48.420;-4.512;2022-09-01T15:52:16;25.35;61.74
74296;SHT30;62690;48.420;-4.512;2022-09-01T15:54:42;25.35;62.03
74296;SHT30;62690;48.420;-4.512;2022-09-01T15:57:08;25.29;62.09
74296;SHT30;62690;48.420;-4.512;2022-09-01T15:59:33;25.29;62.60
74296;SHT30;62690;48.420;-4.512;2022-09-01T16:01:59;25.17;64.68
74296;SHT30;62690;48.420;-4.512;2022-09-01T16:04:25;25.15;64.68
74296;SHT30;62690;48.420;-4.512;2022-09-01T16:06:51;25.08;64.21
74296;SHT30;62690;48.420;-4.512;2022-09-01T16:09:17;25.10;64.19
74296;SHT30;62690;48.420;-4.512;2022-09-01T16:11:45;25.06;63.80
74296;SHT30;62690;48.420;-4.512;2022-09-01T16:14:11;25.01;63.47
74296;SHT30;62690;48.420;-4.512;2022-09-01T16:19:11;25.01;63.50
74296;SHT30;62690;48.420;-4.512;2022-09-01T16:21:53;24.99;63.06
74296;SHT30;62690;48.420;-4.512;2022-09-01T16:24:22;24.98;63.59
74296;SHT30;62690;48.420;-4.512;2022-09-01T16:26:48;24.91;63.93
74296;SHT30;62690;48.420;-4.512;2022-09-01T16:29:24;24.91;63.49
74296;SHT30;62690;48.420;-4.512;2022-09-01T16:31:54;24.88;63.40
74296;SHT30;62690;48.420;-4.512;2022-09-01T16:34:20;24.88;63.31
74296;SHT30;62690;48.420;-4.512;2022-09-01T16:37:10;24.87;63.44
74296;SHT30;62690;48.420;-4.512;2022-09-01T16:39:45;24.86;63.18
74296;SHT30;62690;48.420;-4.512;2022-09-01T16:42:34;24.84;63.10
74296;SHT30;62690;48.420;-4.512;2022-09-01T16:50:35;24.74;62.77
74296;SHT30;62690;48.420;-4.512;2022-09-01T16:53:12;24.70;63.06
74296;SHT30;62690;48.420;-4.512;2022-09-01T16:56:04;24.69;63.06
74296;SHT30;62690;48.420;-4.512;2022-09-01T17:01:34;24.64;63.38
74296;SHT30;62690;48.420;-4.512;2022-09-01T17:09:23;24.53;63.16
74296;SHT30;62690;48.420;-4.512;2022-09-01T17:11:51;24.50;62.75
74296;SHT30;62690;48.420;-4.512;2022-09-01T17:14:24;24.47;62.80
74296;SHT30;62690;48.420;-4.512;2022-09-01T17:17:06;24.44;63.04
74296;SHT30;62690;48.420;-4.512;2022-09-01T17:19:32;24.39;62.85
74296;SHT30;62690;48.420;-4.512;2022-09-01T17:22:03;24.36;62.82
74296;SHT30;62690;48.420;-4.512;2022-09-01T17:24:38;24.36;62.88
74296;SHT30;62690;48.420;-4.512;2022-09-01T17:27:36;24.35;62.93
74296;SHT30;62690;48.420;-4.512;2022-09-01T17:30:03;24.35;63.15
74296;SHT30;62690;48.420;-4.512;2022-09-01T17:32:44;24.35;63.16
74296;SHT30;62690;48.420;-4.512;2022-09-01T17:41:39;24.37;63.25
74296;SHT30;62690;48.420;-4.512;2022-09-01T17:44:53;24.37;63.04
74296;SHT30;62690;48.420;-4.512;2022-09-01T17:47:15;24.39;62.93
74296;SHT30;62690;48.420;-4.512;2022-09-01T17:50:06;24.35;62.96
74296;SHT30;62690;48.420;-4.512;2022-09-01T17:57:48;24.28;62.87
74296;SHT30;62690;48.420;-4.512;2022-09-01T18:00:25;24.23;62.69
74296;SHT30;62690;48.420;-4.512;2022-09-01T18:05:44;24.19;62.93
74296;SHT30;62690;48.420;-4.512;2022-09-01T18:08:38;24.18;63.03
74296;SHT30;62690;48.420;-4.512;2022-09-01T18:14:13;24.13;63.05
74296;SHT30;62690;48.420;-4.512;2022-09-01T18:17:01;24.08;63.28
74296;SHT30;62690;48.420;-4.512;2022-09-01T18:19:42;24.06;63.48
74296;SHT30;62690;48.420;-4.512;2022-09-01T18:22:14;24.02;63.61
74296;SHT30;62690;48.420;-4.512;2022-09-01T18:27:08;23.97;63.55
74296;SHT30;62690;48.420;-4.512;2022-09-01T18:29:34;23.97;63.70
74296;SHT30;62690;48.420;-4.512;2022-09-01T18:32:28;23.90;63.60
74296;SHT30;62690;48.420;-4.512;2022-09-01T18:35:14;23.88;63.67
74296;SHT30;62690;48.420;-4.512;2022-09-01T18:37:58;23.86;63.56
74296;SHT30;62690;48.420;-4.512;2022-09-01T18:43:35;23.78;63.71
74296;SHT30;62690;48.420;-4.512;2022-09-01T18:46:30;23.72;63.76
74296;SHT30;62690;48.420;-4.512;2022-09-01T18:49:16;23.71;64.19
74296;SHT30;62690;48.420;-4.512;2022-09-01T18:57:04;23.55;64.74
